sensor_id;sensor_type;location;lat;lon;timestamp;P1;durP1;ratioP1;P2;durP2;ratioP2
42186;SDS011;27858;51.414;0.018;2023-10-13T17:47:04;4.45;;;1.33;;
42186;SDS011;27858;51.414;0.018;2023-10-13T17:52:06;10.50;;;1.95;;
42186;SDS011;27858;51.414;0.018;2023-10-13T17:54:34;4.50;;;1.48;;
42186;SDS011;27858;51.414;0.018;2023-10-13T17:57:01;3.75;;;1.02;;
42186;SDS011;27858;51.414;0.018;2023-10-13T17:59:33;5.93;;;1.42;;
42186;SDS011;27858;51.414;0.018;2023-10-13T18:02:02;6.95;;;0.95;;
42186;SDS011;27858;51.414;0.018;2023-10-13T18:04:29;3.95;;;1.52;;
42186;SDS011;27858;51.414;0.018;2023-10-13T18:06:57;2.03;;;1.27;;
42186;SDS011;27858;51.414;0.018;2023-10-13T18:09:24;3.38;;;0.95;;
42186;SDS011;27858;51.414;0.018;2023-10-13T18:11:54;6.22;;;1.75;;
42186;SDS011;27858;51.414;0.018;2023-10-13T18:14:20;3.75;;;1.45;;
42186;SDS011;27858;51.414;0.018;2023-10-13T18:16:48;4.13;;;1.48;;
42186;SDS011;27858;51.414;0.018;2023-10-13T18:19:20;3.28;;;0.80;;
42186;SDS011;27858;51.414;0.018;2023-10-13T18:21:51;0.82;;;0.45;;
42186;SDS011;27858;51.414;0.018;2023-10-13T18:24:21;0.88;;;0.47;;
42186;SDS011;27858;51.414;0.018;2023-10-13T18:26:48;1.48;;;0.40;;
42186;SDS011;27858;51.414;0.018;2023-10-13T18:29:16;2.80;;;0.38;;
42186;SDS011;27858;51.414;0.018;2023-10-13T18:31:42;8.98;;;1.27;;
42186;SDS011;27858;51.414;0.018;2023-10-13T18:34:09;0.20;;;0.20;;
42186;SDS011;27858;51.414;0.018;2023-10-13T18:36:37;1.27;;;0.40;;
42186;SDS011;27858;51.414;0.018;2023-10-13T18:39:04;0.20;;;0.20;;
42186;SDS011;27858;51.414;0.018;2023-10-13T18:41:36;0.60;;;0.38;;
42186;SDS011;27858;51.414;0.018;2023-10-13T18:44:02;1.38;;;0.30;;
42186;SDS011;27858;51.414;0.018;2023-10-13T18:46:36;0.70;;;0.30;;
42186;SDS011;27858;51.414;0.018;2023-10-13T18:49:03;0.25;;;0.25;;
42186;SDS011;27858;51.414;0.018;2023-10-13T18:51:32;0.13;;;0.13;;
42186;SDS011;27858;51.414;0.018;2023-10-13T18:53:59;1.20;;;0.50;;
42186;SDS011;27858;51.414;0.018;2023-10-13T18:56:28;0.45;;;0.30;;
42186;SDS011;27858;51.414;0.018;2023-10-13T18:58:55;2.88;;;0.38;;
42186;SDS011;27858;51.414;0.018;2023-10-13T19:01:26;0.30;;;0.30;;
42186;SDS011;27858;51.414;0.018;2023-10-13T19:03:59;0.45;;;0.40;;
42186;SDS011;27858;51.414;0.018;2023-10-13T19:06:29;0.20;;;0.13;;
42186;SDS011;27858;51.414;0.018;2023-10-13T19:08:57;0.55;;;0.30;;
42186;SDS011;27858;51.414;0.018;2023-10-13T19:11:24;0.30;;;0.30;;
42186;SDS011;27858;51.414;0.018;2023-10-13T19:13:52;0.20;;;0.20;;
42186;SDS011;27858;51.414;0.018;2023-10-13T19:16:20;0.60;;;0.50;;
42186;SDS011;27858;51.414;0.018;2023-10-13T19:18:52;0.50;;;0.40;;
42186;SDS011;27858;51.414;0.018;2023-10-13T19:21:25;0.80;;;0.40;;
42186;SDS011;27858;51.414;0.018;2023-10-13T19:23:53;1.00;;;0.47;;
42186;SDS011;27858;51.414;0.018;2023-10-13T19:26:21;0.55;;;0.55;;
42186;SDS011;27858;51.414;0.018;2023-10-13T19:28:59;1.42;;;1.00;;
42186;SDS011;27858;51.414;0.018;2023-10-13T19:31:27;0.95;;;0.70;;
42186;SDS011;27858;51.414;0.018;2023-10-13T19:33:56;2.80;;;1.27;;
42186;SDS011;27858;51.414;0.018;2023-10-13T19:36:28;2.15;;;0.60;;
42186;SDS011;27858;51.414;0.018;2023-10-13T19:38:59;4.25;;;1.38;;
42186;SDS011;27858;51.414;0.018;2023-10-13T19:41:33;3.50;;;0.98;;
42186;SDS011;27858;51.414;0.018;2023-10-13T19:44:01;2.10;;;0.65;;
42186;SDS011;27858;51.414;0.018;2023-10-13T19:46:30;1.38;;;1.00;;
42186;SDS011;27858;51.414;0.018;2023-10-13T19:48:58;1.25;;;0.60;;
42186;SDS011;27858;51.414;0.018;2023-10-13T19:51:30;1.63;;;0.73;;
42186;SDS011;27858;51.414;0.018;2023-10-13T19:53:58;1.45;;;0.80;;
42186;SDS011;27858;51.414;0.018;2023-10-13T19:56:31;1.52;;;0.52;;
42186;SDS011;27858;51.414;0.018;2023-10-13T19:58:59;2.38;;;0.88;;
42186;SDS011;27858;51.414;0.018;2023-10-13T20:01:30;2.38;;;1.08;;
42186;SDS011;27858;51.414;0.018;2023-10-13T20:04:01;3.88;;;1.60;;
42186;SDS011;27858;51.414;0.018;2023-10-13T20:06:34;7.57;;;1.70;;
42186;SDS011;27858;51.414;0.018;2023-10-13T20:09:01;1.42;;;0.88;;
42186;SDS011;27858;51.414;0.018;2023-10-13T20:11:35;4.15;;;1.35;;
42186;SDS011;27858;51.414;0.018;2023-10-13T20:14:03;4.85;;;1.90;;
42186;SDS011;27858;51.414;0.018;2023-10-13T20:16:29;10.27;;;1.80;;
42186;SDS011;27858;51.414;0.018;2023-10-13T20:18:57;6.68;;;1.40;;
42186;SDS011;27858;51.414;0.018;2023-10-13T20:21:26;3.88;;;2.00;;
42186;SDS011;27858;51.414;0.018;2023-10-13T20:23:55;2.38;;;0.88;;
42186;SDS011;27858;51.414;0.018;2023-10-13T20:28:55;7.10;;;1.80;;
42186;SDS011;27858;51.414;0.018;2023-10-13T20:31:22;6.95;;;1.27;;
42186;SDS011;27858;51.414;0.018;2023-10-13T20:33:50;3.35;;;1.75;;
42186;SDS011;27858;51.414;0.018;2023-10-13T20:36:24;12.50;;;1.67;;
42186;SDS011;27858;51.414;0.018;2023-10-13T20:38:51;3.97;;;1.42;;
42186;SDS011;27858;51.414;0.018;2023-10-13T20:41:18;2.28;;;1.05;;
42186;SDS011;27858;51.414;0.018;2023-10-13T20:43:50;4.85;;;1.15;;
42186;SDS011;27858;51.414;0.018;2023-10-13T20:46:18;5.27;;;1.23;;
42186;SDS011;27858;51.414;0.018;2023-10-13T20:48:46;3.85;;;2.10;;
42186;SDS011;27858;51.414;0.018;2023-10-13T20:51:14;3.58;;;1.40;;
42186;SDS011;27858;51.414;0.018;2023-10-13T20:53:41;4.15;;;1.48;;
42186;SDS011;27858;51.414;0.018;2023-10-13T20:56:10;4.00;;;1.00;;
42186;SDS011;27858;51.414;0.018;2023-10-13T20:58:44;3.85;;;1.27;;
42186;SDS011;27858;51.414;0.018;2023-10-13T21:01:15;4.70;;;1.98;;
42186;SDS011;27858;51.414;0.018;2023-10-13T21:03:42;9.32;;;2.30;;
42186;SDS011;27858;51.414;0.018;2023-10-13T21:06:10;2.95;;;1.52;;
42186;SDS011;27858;51.414;0.018;2023-10-13T21:08:37;9.98;;;2.08;;
42186;SDS011;27858;51.414;0.018;2023-10-13T21:11:17;12.65;;;2.72;;
42186;SDS011;27858;51.414;0.018;2023-10-13T21:13:44;5.43;;;1.83;;
42186;SDS011;27858;51.414;0.018;2023-10-13T21:16:11;5.15;;;1.60;;
42186;SDS011;27858;51.414;0.018;2023-10-13T21:18:42;9.93;;;2.47;;
42186;SDS011;27858;51.414;0.018;2023-10-13T21:23:42;4.78;;;2.45;;
42186;SDS011;27858;51.414;0.018;2023-10-13T21:26:09;5.70;;;1.27;;
42186;SDS011;27858;51.414;0.018;2023-10-13T21:28:48;9.20;;;2.45;;
42186;SDS011;27858;51.414;0.018;2023-10-13T21:31:15;3.78;;;1.80;;
42186;SDS011;27858;51.414;0.018;2023-10-13T21:33:43;3.60;;;1.80;;
42186;SDS011;27858;51.414;0.018;2023-10-13T21:36:22;5.82;;;1.65;;
42186;SDS011;27858;51.414;0.018;2023-10-13T21:38:53;14.48;;;3.20;;
42186;SDS011;27858;51.414;0.018;2023-10-13T21:41:21;6.57;;;1.83;;
42186;SDS011;27858;51.414;0.018;2023-10-13T21:43:52;6.03;;;1.70;;
42186;SDS011;27858;51.414;0.018;2023-10-13T21:46:21;4.47;;;1.55;;
42186;SDS011;27858;51.414;0.018;2023-10-13T21:48:49;3.42;;;1.17;;
42186;SDS011;27858;51.414;0.018;2023-10-13T21:51:17;7.13;;;2.42;;
42186;SDS011;27858;51.414;0.018;2023-10-13T21:53:45;4.28;;;1.48;;
42186;SDS011;27858;51.414;0.018;2023-10-13T21:56:13;5.45;;;1.73;;
42186;SDS011;27858;51.414;0.018;2023-10-13T21:58:41;5.95;;;2.28;;
42186;SDS011;27858;51.414;0.018;2023-10-13T22:01:12;6.10;;;2.00;;
42186;SDS011;27858;51.414;0.018;2023-10-13T22:06:17;5.57;;;1.30;;
42186;SDS011;27858;51.414;0.018;2023-10-13T22:08:47;5.10;;;2.20;;
42186;SDS011;27858;51.414;0.018;2023-10-13T22:11:17;4.93;;;1.38;;
42186;SDS011;27858;51.414;0.018;2023-10-13T22:13:46;10.98;;;2.65;;
42186;SDS011;27858;51.414;0.018;2023-10-13T22:16:15;5.28;;;1.95;;
42186;SDS011;27858;51.414;0.018;2023-10-13T22:18:44;5.05;;;2.17;;
42186;SDS011;27858;51.414;0.018;2023-10-13T22:21:13;4.50;;;1.40;;
42186;SDS011;27858;51.414;0.018;2023-10-13T22:23:40;10.38;;;1.90;;
42186;SDS011;27858;51.414;0.018;2023-10-13T22:26:08;7.20;;;2.15;;
42186;SDS011;27858;51.414;0.018;2023-10-13T22:28:39;11.80;;;2.37;;
42186;SDS011;27858;51.414;0.018;2023-10-13T22:31:14;8.65;;;2.53;;
42186;SDS011;27858;51.414;0.018;2023-10-13T22:33:43;5.57;;;1.95;;
42186;SDS011;27858;51.414;0.018;2023-10-13T22:36:11;4.57;;;2.35;;
42186;SDS011;27858;51.414;0.018;2023-10-13T22:38:39;5.03;;;1.63;;
42186;SDS011;27858;51.414;0.018;2023-10-13T22:41:08;6.35;;;1.90;;
42186;SDS011;27858;51.414;0.018;2023-10-13T22:43:38;5.97;;;1.55;;
42186;SDS011;27858;51.414;0.018;2023-10-13T22:46:05;6.15;;;2.63;;
42186;SDS011;27858;51.414;0.018;2023-10-13T22:48:36;6.15;;;2.17;;
42186;SDS011;27858;51.414;0.018;2023-10-13T22:51:04;11.00;;;2.10;;
42186;SDS011;27858;51.414;0.018;2023-10-13T22:53:40;6.22;;;2.53;;
42186;SDS011;27858;51.414;0.018;2023-10-13T22:56:13;10.18;;;2.33;;
42186;SDS011;27858;51.414;0.018;2023-10-13T22:58:47;3.58;;;2.05;;
42186;SDS011;27858;51.414;0.018;2023-10-13T23:01:14;4.80;;;1.60;;
42186;SDS011;27858;51.414;0.018;2023-10-13T23:03:44;9.65;;;2.42;;
42186;SDS011;27858;51.414;0.018;2023-10-13T23:06:23;5.30;;;1.33;;
42186;SDS011;27858;51.414;0.018;2023-10-13T23:08:57;6.82;;;2.13;;
42186;SDS011;27858;51.414;0.018;2023-10-13T23:11:35;6.65;;;2.28;;
42186;SDS011;27858;51.414;0.018;2023-10-13T23:14:05;8.20;;;1.85;;
42186;SDS011;27858;51.414;0.018;2023-10-13T23:16:32;5.88;;;2.10;;
42186;SDS011;27858;51.414;0.018;2023-10-13T23:18:59;5.65;;;2.33;;
42186;SDS011;27858;51.414;0.018;2023-10-13T23:21:27;10.85;;;1.85;;
42186;SDS011;27858;51.414;0.018;2023-10-13T23:23:54;6.82;;;1.48;;
42186;SDS011;27858;51.414;0.018;2023-10-13T23:26:22;6.80;;;1.98;;
42186;SDS011;27858;51.414;0.018;2023-10-13T23:28:52;11.13;;;1.90;;
42186;SDS011;27858;51.414;0.018;2023-10-13T23:31:20;3.58;;;1.33;;
42186;SDS011;27858;51.414;0.018;2023-10-13T23:33:49;16.70;;;2.15;;
42186;SDS011;27858;51.414;0.018;2023-10-13T23:36:16;8.00;;;1.33;;
42186;SDS011;27858;51.414;0.018;2023-10-13T23:38:43;26.35;;;3.75;;
42186;SDS011;27858;51.414;0.018;2023-10-13T23:41:26;5.93;;;1.60;;
42186;SDS011;27858;51.414;0.018;2023-10-13T23:43:57;7.03;;;1.57;;
42186;SDS011;27858;51.414;0.018;2023-10-13T23:46:25;2.85;;;0.90;;
42186;SDS011;27858;51.414;0.018;2023-10-13T23:48:53;8.65;;;2.55;;
42186;SDS011;27858;51.414;0.018;2023-10-13T23:51:21;4.43;;;1.75;;
42186;SDS011;27858;51.414;0.018;2023-10-13T23:53:55;4.32;;;1.48;;
42186;SDS011;27858;51.414;0.018;2023-10-13T23:56:40;7.80;;;1.55;;
42186;SDS011;27858;51.414;0.018;2023-10-13T23:59:14;8.45;;;1.60;;
